30/01/2019 - Golden 1 Center, Sacramento, CA. Temporada Regular

Sacramento Kings - 135

Atlanta Hawks - 113

  • Árbitros: Leon Wood,John Goble,Brent Barnaky
  • Asistencia: 17583 espectadores
  • Duración del partido: 2:11 horas
  • Número de empates durante el partido: 1
  • Cambios de líder: 2 veces

Dobles-Dobles

Tabla estadísticas

Atlanta Hawks - 113
Jugador Min TC T3 TL +/- rebO rebD reb asis fp rob per tap tr Val ptos
Daniel Hamilton 4:20 0/1 0/1 0/0 -1 0 0 0 1 1 0 0 0 0 0 0
Vince Carter 3:54 0/1 0/1 0/0 -4 0 0 0 0 1 0 0 0 0 -1 0
Justin Anderson 3:25 0/0 0/0 2/2 -1 0 1 1 0 0 0 0 0 0 3 2
Trae Young 28:50 7/12 4/9 5/6 -5 1 0 1 8 2 1 5 0 0 22 23
Taurean Prince 25:57 3/4 2/3 3/4 -18 0 2 2 2 1 0 2 0 0 11 11
John Collins 25:26 5/15 0/4 4/4 -12 4 3 7 1 1 0 3 1 0 10 14
Kevin Huerter 24:13 4/9 3/7 0/0 -15 0 4 4 4 2 2 1 1 0 16 11
Omari Spellman 24:06 1/6 1/5 0/0 -7 0 1 1 0 2 1 1 0 0 -1 3
Dewayne Dedmon 23:36 2/7 1/4 0/0 -9 2 7 9 1 3 1 2 1 0 10 5
DeAndre Bembry 20:15 5/10 1/2 0/1 -7 1 4 5 1 1 1 2 0 0 10 11
Jeremy Lin 19:10 2/6 1/2 6/6 -17 0 2 2 5 0 0 1 0 0 13 11
Kent Bazemore 18:51 3/5 2/4 1/2 -3 0 1 1 1 1 1 1 0 0 8 9
Alex Len 17:57 6/10 1/4 0/0 -11 1 2 3 0 4 0 2 0 0 10 13
Total / / / -110 111
Sacramento Kings - 135
Jugador Min TC T3 TL +/- rebO rebD reb asis fp rob per tap tr Val ptos
Kosta Koufos 4:35 3/3 0/0 0/0 1 0 2 2 0 0 0 0 0 0 8 6
Frank Mason 3:25 1/1 0/0 2/2 1 0 0 0 1 1 0 0 0 0 5 4
Bogdan Bogdanovic 28:41 5/14 3/10 3/3 12 0 4 4 7 1 1 2 0 0 17 16
Marvin Bagley 28:10 7/14 0/3 3/6 12 5 7 12 2 3 1 2 0 0 20 17
Buddy Hield 25:29 6/11 4/8 2/2 8 0 3 3 3 5 1 2 1 0 19 18
Yogi Ferrell 24:36 5/9 1/5 0/0 11 1 2 3 4 2 0 1 0 0 13 11
De'Aaron Fox 21:50 4/10 0/1 1/2 9 1 3 4 7 2 0 3 1 0 11 9
Nemanja Bjelica 20:40 5/11 2/4 0/0 11 4 4 8 2 3 1 1 0 0 16 12
Harry Giles 20:35 10/12 0/0 0/0 27 2 5 7 1 2 0 0 0 0 26 20
Iman Shumpert 20:17 3/7 1/2 0/0 15 0 2 2 2 0 2 0 0 0 9 7
Willie Cauley-Stein 20:09 3/3 0/0 3/4 -6 2 3 5 3 4 0 3 0 0 13 9
Skal Labissiere 1:56 0/0 0/0 0/0 -1 0 0 0 1 1 0 0 0 0 1 0
Justin Jackson 19:37 2/4 0/2 2/2 10 0 3 3 3 0 1 0 0 0 11 6
Total / / / 110 169



temporada 201819

Calendario por equipos

Selecciona equipo NBA y tipo partidos

enfrentamientos equipos

Selecciona enfrentamiento equipos NBA